Airfield :
LOGIN :

Register | Disclaimer

   EN    FR    IT 

 










Legend :    VFR   Marginal VFR   IFR   Intensive IFR   Very Intensive IFR
Visi :
Ceiling :
>= 8 km
>= 3000ft
5 to 8 km
1000 to 3000 ft
1500m to 5 km
500 to 1000 ft
800 to 1500m
200 to 500 ft
< 800m
< 200 ft
Symbols :   Thunderstorms  Fog  Heavy snow  Heavy precipitations  Wind > 20 kt
SIGMETs :     Misc.  Thunderstorms  Icing  Turbulence  Mountain Waves  Volcanic Ashes







- Airport Elevation : 15 ft
- IATA code : FCO


LIRF - Roma Leonardo da Vinci Fiumicino

CURRENT METAR :
  • 210050Z 02002KT 3000 BCFG NSC 11/10 Q1021 NOSIG

EXPIRED METARs :
  • 210020Z 02002KT 3000 BCFG NSC 11/10 Q1021 NOSIG
  • 202350Z 03003KT 4000 BCFG NSC 11/11 Q1021 BECMG 2500 BCFG
  • 202320Z 05002KT 5000 BR NSC 12/11 Q1021 NOSIG
  • 202250Z VRB01KT 7000 NSC 12/11 Q1021 NOSIG
  • 202220Z 01003KT 7000 BCFG NSC 12/12 Q1021 BECMG 2500 BR

TAF TAF LIRF
Valid from the 21 at 00:00 until the 22 at 06:00 UTC


202300Z 2100/2206 VRB04KT 6000 FEW018
TEMPO 2100/2106 2000 BR
BECMG 2108/2110 25010KT
BECMG 2116/2118 25010KT
No reported NOTAMs for that airfield.



MET'MAP, your aeronautical weather chart ! - Copyright ORBIFLY December 2007 - Disclaimer

ORBIFLY MET'MAP TEAM :

Programming & Development : Alexandra Zaïnal
Concept & Development : Baudouin d'Aumeries
Co-Development & Prog : Marc-Olivier Méhu
Technical & hardware support : Manuel Goepfert

Contact : metmap@orbifly.com




SOURCES & CREDITS :

   NOAA